Time;durP1;ratioP1;P1;durP2;ratioP2;P2;SDS_P1;SDS_P2;PMS_P1;PMS_P2;Temp;Humidity;BMP_temperature;BMP_pressure;BME280_temperature;BME280_humidity;BME280_pressure;Samples;Min_cycle;Max_cycle;Signal;HPM_P1;HPM_P2
2023/01/18 00:00:36;;;;;;;1.80;0.80;;;18.20;63.70;;;;;;4525662;31;20132;-70
2023/01/18 00:03:03;;;;;;;2.13;0.80;;;18.20;63.80;;;;;;4512700;31;20700;-70
2023/01/18 00:05:29;;;;;;;1.55;0.85;;;18.20;63.80;;;;;;4526677;31;20170;-70
2023/01/18 00:07:55;;;;;;;1.80;0.82;;;18.20;63.80;;;;;;4527466;31;20148;-70
2023/01/18 00:10:22;;;;;;;3.00;0.85;;;18.10;63.80;;;;;;4513005;31;20143;-70
2023/01/18 00:12:49;;;;;;;1.52;0.60;;;18.10;63.90;;;;;;4526402;31;20128;-70
2023/01/18 00:15:15;;;;;;;1.85;0.70;;;18.10;63.90;;;;;;4524884;31;20344;-70
2023/01/18 00:17:50;;;;;;;1.17;0.80;;;18.10;63.90;;;;;;4512649;31;20160;-70
2023/01/18 00:20:20;;;;;;;1.35;0.60;;;18.10;63.90;;;;;;4525122;31;20282;-70
2023/01/18 00:22:47;;;;;;;1.83;0.85;;;18.00;63.90;;;;;;4526611;31;20715;-71
2023/01/18 00:25:13;;;;;;;2.85;0.80;;;18.00;64.00;;;;;;4527709;31;20212;-71
2023/01/18 00:27:44;;;;;;;1.35;0.70;;;18.00;64.00;;;;;;4510392;31;20128;-71
2023/01/18 00:30:11;;;;;;;1.73;0.80;;;18.00;64.10;;;;;;4509967;31;20124;-70
2023/01/18 00:32:37;;;;;;;1.70;0.77;;;18.00;64.10;;;;;;4509776;31;20189;-71
2023/01/18 00:35:06;;;;;;;1.30;0.60;;;18.00;64.10;;;;;;4511066;31;20157;-71
2023/01/18 00:37:34;;;;;;;1.48;0.65;;;18.00;64.10;;;;;;4510270;31;20150;-70
2023/01/18 00:40:00;;;;;;;2.30;0.65;;;18.00;64.10;;;;;;4509916;31;20143;-70
2023/01/18 00:45:11;;;;;;;1.63;0.70;;;17.90;64.20;;;;;;4511954;31;20120;-69
2023/01/18 00:47:36;;;;;;;2.40;0.70;;;17.90;64.20;;;;;;4527999;31;20136;-69
2023/01/18 00:50:03;;;;;;;1.15;0.50;;;17.90;64.10;;;;;;4511757;31;20132;-69
2023/01/18 00:52:29;;;;;;;1.95;0.70;;;17.90;64.10;;;;;;4502016;31;20286;-69
2023/01/18 00:54:55;;;;;;;2.00;0.60;;;17.80;64.10;;;;;;4504092;31;20504;-69
2023/01/18 00:57:21;;;;;;;2.53;0.90;;;17.80;64.00;;;;;;4490137;31;20136;-70
2023/01/18 00:59:47;;;;;;;1.30;0.65;;;17.80;64.10;;;;;;4496135;31;20124;-70
2023/01/18 01:02:13;;;;;;;1.70;0.75;;;17.80;64.10;;;;;;4501980;31;20259;-71
2023/01/18 01:07:24;;;;;;;0.80;0.60;;;17.80;64.30;;;;;;4504086;31;20183;-70
2023/01/18 01:09:50;;;;;;;2.08;0.57;;;17.80;64.20;;;;;;4513874;31;20324;-70
2023/01/18 01:26:12;;;;;;;1.05;0.65;;;17.70;64.20;;;;;;4515160;31;20258;-70
2023/01/18 01:28:38;;;;;;;0.85;0.30;;;17.70;64.20;;;;;;4527552;31;20142;-70
2023/01/18 01:31:07;;;;;;;0.82;0.47;;;17.60;64.20;;;;;;4531293;31;20111;-70
2023/01/18 01:33:33;;;;;;;1.75;0.57;;;17.60;64.20;;;;;;4530631;31;20178;-70
2023/01/18 01:36:02;;;;;;;1.33;0.60;;;17.60;64.20;;;;;;4530380;31;20182;-70
2023/01/18 01:38:30;;;;;;;1.55;0.57;;;17.60;64.20;;;;;;4531040;31;20565;-70
2023/01/18 01:41:01;;;;;;;1.42;0.60;;;17.60;64.20;;;;;;4529944;31;20131;-70
2023/01/18 01:43:57;;;;;;;1.08;0.47;;;17.60;64.20;;;;;;4531012;31;20220;-70
2023/01/18 01:46:45;;;;;;;2.35;0.70;;;17.60;64.10;;;;;;4505352;31;20132;-69
2023/01/18 01:49:19;;;;;;;1.65;0.52;;;17.60;64.20;;;;;;4529838;31;20216;-69
2023/01/18 01:51:52;;;;;;;1.15;0.50;;;17.60;64.20;;;;;;4516458;31;20291;-70
2023/01/18 01:54:39;;;;;;;1.25;0.70;;;17.60;64.30;;;;;;4529525;31;20116;-70
2023/01/18 01:57:14;;;;;;;1.85;0.55;;;17.50;64.40;;;;;;4516049;31;20262;-71
2023/01/18 01:59:47;;;;;;;1.65;0.45;;;17.50;64.20;;;;;;4528822;31;20076;-72
2023/01/18 02:02:12;;;;;;;1.87;0.70;;;17.50;64.30;;;;;;4525709;31;20147;-71
2023/01/18 02:04:43;;;;;;;1.08;0.45;;;17.50;64.20;;;;;;4529941;31;20123;-69
2023/01/18 02:07:12;;;;;;;2.42;0.65;;;17.50;64.30;;;;;;4523158;31;20184;-67
2023/01/18 02:09:39;;;;;;;1.42;0.63;;;17.50;64.40;;;;;;4525395;31;20142;-69
2023/01/18 02:12:05;;;;;;;1.17;0.52;;;17.50;64.30;;;;;;4514677;31;20135;-69
2023/01/18 02:14:31;;;;;;;1.48;0.47;;;17.50;64.20;;;;;;4502808;31;20142;-68
2023/01/18 02:17:30;;;;;;;1.42;0.47;;;17.50;64.30;;;;;;4516640;31;20138;-69
2023/01/18 02:20:07;;;;;;;1.25;0.40;;;17.50;64.30;;;;;;4528208;31;20484;-68
2023/01/18 02:22:58;;;;;;;3.05;0.80;;;17.50;64.40;;;;;;4516196;31;20454;-70
2023/01/18 02:25:39;;;;;;;1.60;0.70;;;17.50;64.40;;;;;;4528863;31;20139;-70
2023/01/18 02:28:17;;;;;;;3.80;0.60;;;17.40;64.30;;;;;;4520971;31;20263;-69
2023/01/18 02:31:17;;;;;;;0.98;0.52;;;17.40;64.30;;;;;;4528446;31;20576;-70
2023/01/18 02:34:07;;;;;;;1.45;0.50;;;17.40;64.20;;;;;;4521754;31;20120;-70
2023/01/18 02:37:04;;;;;;;1.05;0.50;;;17.40;64.20;;;;;;4527265;31;20171;-69
2023/01/18 02:39:48;;;;;;;1.63;0.40;;;17.40;64.10;;;;;;4505321;31;20556;-69
2023/01/18 02:48:13;;;;;;;0.73;0.47;;;17.30;64.10;;;;;;4527816;31;20136;-68
2023/01/18 02:50:39;;;;;;;1.35;0.55;;;17.30;64.20;;;;;;4513479;31;20209;-67
2023/01/18 02:53:05;;;;;;;1.30;0.50;;;17.30;64.20;;;;;;4527651;31;20266;-68
2023/01/18 02:55:36;;;;;;;1.35;0.40;;;17.30;64.20;;;;;;4528233;31;20184;-67
2023/01/18 02:58:33;;;;;;;1.58;0.60;;;17.30;64.20;;;;;;4528335;31;20155;-68
2023/01/18 03:01:28;;;;;;;0.50;0.40;;;17.30;64.00;;;;;;4498323;31;20132;-68
2023/01/18 03:03:58;;;;;;;1.00;0.60;;;17.30;64.00;;;;;;4518874;31;20095;-68
2023/01/18 03:06:28;;;;;;;0.98;0.57;;;17.30;64.00;;;;;;4527157;31;20143;-69
2023/01/18 03:08:57;;;;;;;1.10;0.30;;;17.30;64.00;;;;;;4513976;31;20112;-69
2023/01/18 03:11:44;;;;;;;0.90;0.45;;;17.30;63.90;;;;;;4524112;31;20128;-68
2023/01/18 03:14:26;;;;;;;2.75;0.50;;;17.40;64.80;;;;;;4523120;31;20124;-69
2023/01/18 03:17:35;;;;;;;1.50;0.55;;;17.40;63.80;;;;;;4520257;31;20092;-68
2023/01/18 03:20:08;;;;;;;1.02;0.47;;;17.40;63.70;;;;;;4478633;32;20251;-68
2023/01/18 03:25:45;;;;;;;0.93;0.40;;;17.40;63.70;;;;;;4521674;31;20147;-68
2023/01/18 03:34:21;;;;;;;1.10;0.50;;;17.40;63.60;;;;;;4529719;31;20088;-68
2023/01/18 03:36:51;;;;;;;1.23;0.65;;;17.40;63.50;;;;;;4518089;31;20131;-68
2023/01/18 03:39:28;;;;;;;1.17;0.60;;;17.40;63.50;;;;;;4515588;31;20139;-68
2023/01/18 03:42:01;;;;;;;1.15;0.50;;;17.40;63.40;;;;;;4504467;31;20139;-68
2023/01/18 03:44:35;;;;;;;1.17;0.40;;;17.50;63.50;;;;;;4529201;31;20135;-68
2023/01/18 03:47:03;;;;;;;1.23;0.50;;;17.40;63.30;;;;;;4529646;31;20120;-68
2023/01/18 03:49:31;;;;;;;0.77;0.40;;;17.40;63.30;;;;;;4528324;31;20199;-68
2023/01/18 03:52:20;;;;;;;1.00;0.38;;;17.50;63.30;;;;;;4515253;31;20633;-68
2023/01/18 03:54:54;;;;;;;0.90;0.40;;;17.50;64.10;;;;;;4528876;31;20112;-68
2023/01/18 03:57:46;;;;;;;0.98;0.40;;;17.50;63.20;;;;;;4529144;31;20212;-68
2023/01/18 04:00:13;;;;;;;0.93;0.40;;;17.50;63.10;;;;;;4515265;31;20238;-68
2023/01/18 04:02:41;;;;;;;0.70;0.50;;;17.50;63.20;;;;;;4528421;31;20132;-68
2023/01/18 04:05:08;;;;;;;0.93;0.40;;;17.50;63.10;;;;;;4529323;31;20193;-68
2023/01/18 04:07:33;;;;;;;1.20;0.47;;;17.50;63.00;;;;;;4514449;31;20553;-68
2023/01/18 04:10:00;;;;;;;0.70;0.32;;;17.50;63.00;;;;;;4499182;31;20205;-68
2023/01/18 04:12:26;;;;;;;1.60;0.47;;;17.50;63.00;;;;;;4515287;31;20154;-67
2023/01/18 04:14:52;;;;;;;0.90;0.50;;;17.50;63.10;;;;;;4514020;31;20132;-68
2023/01/18 04:17:18;;;;;;;1.08;0.45;;;17.50;63.00;;;;;;4517947;31;20158;-68
2023/01/18 04:19:44;;;;;;;0.55;0.30;;;17.50;62.90;;;;;;4516868;31;20139;-68
2023/01/18 04:22:10;;;;;;;0.98;0.50;;;17.50;62.90;;;;;;4532506;31;20190;-68
2023/01/18 04:24:36;;;;;;;0.88;0.40;;;17.50;62.90;;;;;;4531490;31;20180;-67
2023/01/18 04:27:02;;;;;;;0.77;0.43;;;17.50;62.90;;;;;;4517525;31;20144;-68
2023/01/18 04:29:29;;;;;;;0.63;0.30;;;17.50;62.90;;;;;;4532205;31;20947;-67
2023/01/18 04:31:55;;;;;;;0.70;0.50;;;17.50;63.70;;;;;;4531399;31;20135;-68
2023/01/18 04:34:21;;;;;;;0.90;0.50;;;17.50;62.80;;;;;;4504819;31;20146;-68
2023/01/18 04:36:48;;;;;;;0.75;0.40;;;17.50;62.80;;;;;;4516985;31;20258;-68
2023/01/18 04:39:14;;;;;;;1.00;0.40;;;17.50;62.80;;;;;;4518169;31;20201;-68
2023/01/18 04:41:40;;;;;;;1.23;0.52;;;17.50;62.80;;;;;;4531084;31;20301;-68
2023/01/18 04:44:07;;;;;;;0.60;0.40;;;17.50;62.80;;;;;;4531960;31;20123;-68
2023/01/18 04:46:33;;;;;;;0.88;0.40;;;17.50;62.80;;;;;;4517696;31;20106;-67
2023/01/18 04:48:59;;;;;;;0.77;0.32;;;17.40;62.70;;;;;;4531080;31;20220;-68
2023/01/18 04:51:26;;;;;;;0.80;0.50;;;17.40;62.70;;;;;;4517627;31;20123;-68
2023/01/18 04:53:52;;;;;;;0.40;0.25;;;17.50;62.80;;;;;;4516316;31;20136;-68
2023/01/18 04:56:18;;;;;;;1.05;0.35;;;17.40;62.60;;;;;;4517850;31;20143;-68
2023/01/18 04:58:44;;;;;;;0.90;0.40;;;17.40;62.70;;;;;;4530759;31;20147;-67
2023/01/18 05:01:12;;;;;;;1.67;0.40;;;17.40;62.60;;;;;;4532009;31;20138;-68
2023/01/18 05:03:41;;;;;;;0.65;0.30;;;17.40;62.60;;;;;;4517643;31;20262;-68
2023/01/18 05:06:10;;;;;;;0.50;0.25;;;17.40;62.60;;;;;;4530771;31;20112;-68
2023/01/18 05:08:39;;;;;;;0.55;0.38;;;17.40;62.60;;;;;;4532019;31;20221;-68
2023/01/18 05:11:11;;;;;;;0.73;0.35;;;17.40;62.60;;;;;;4530530;31;20149;-68
2023/01/18 05:13:37;;;;;;;0.80;0.45;;;17.40;62.60;;;;;;4517661;31;20190;-68
2023/01/18 05:16:04;;;;;;;1.50;0.70;;;17.40;62.70;;;;;;4516316;31;20310;-67
2023/01/18 05:18:30;;;;;;;0.50;0.32;;;17.40;62.60;;;;;;4531304;31;20135;-68
2023/01/18 05:20:59;;;;;;;0.40;0.40;;;17.40;62.60;;;;;;4517709;31;20592;-68
2023/01/18 05:23:25;;;;;;;0.47;0.20;;;17.40;62.60;;;;;;4516156;31;20112;-68
2023/01/18 05:25:52;;;;;;;0.80;0.40;;;17.40;62.60;;;;;;4517279;31;20163;-68
2023/01/18 05:28:18;;;;;;;0.68;0.40;;;17.40;62.60;;;;;;4515109;31;20139;-68
2023/01/18 05:30:44;;;;;;;0.50;0.32;;;17.40;62.60;;;;;;4531786;31;20135;-68
2023/01/18 05:33:10;;;;;;;1.10;0.50;;;17.40;62.60;;;;;;4500113;31;20159;-68
2023/01/18 05:35:36;;;;;;;1.05;0.20;;;17.40;62.60;;;;;;4496656;31;20123;-68
2023/01/18 05:38:01;;;;;;;0.43;0.30;;;17.40;62.60;;;;;;4516653;31;20072;-67
2023/01/18 05:40:27;;;;;;;0.65;0.30;;;17.40;62.60;;;;;;4529926;31;20186;-68
2023/01/18 05:42:53;;;;;;;1.00;0.60;;;17.40;62.60;;;;;;4517253;31;20108;-68
2023/01/18 05:45:20;;;;;;;0.88;0.50;;;17.40;62.60;;;;;;4529935;31;20138;-68
2023/01/18 05:47:46;;;;;;;2.00;0.50;;;17.30;62.60;;;;;;4517121;31;20116;-68
2023/01/18 05:50:12;;;;;;;0.50;0.30;;;17.40;62.60;;;;;;4529921;31;20132;-68
2023/01/18 05:52:37;;;;;;;0.43;0.30;;;17.30;62.60;;;;;;4530753;31;20266;-68
2023/01/18 05:55:04;;;;;;;1.02;0.38;;;17.30;62.60;;;;;;4531067;31;20068;-68
2023/01/18 05:57:31;;;;;;;0.60;0.40;;;17.40;62.60;;;;;;4515555;31;20171;-68
2023/01/18 05:59:57;;;;;;;0.43;0.25;;;17.30;62.60;;;;;;4516479;31;20228;-68
2023/01/18 06:02:24;;;;;;;0.85;0.40;;;17.30;62.50;;;;;;4515125;31;20120;-68
2023/01/18 06:04:49;;;;;;;1.30;0.50;;;17.30;62.60;;;;;;4530962;31;20120;-68
2023/01/18 06:07:15;;;;;;;0.50;0.40;;;17.30;62.60;;;;;;4529455;31;20130;-68
2023/01/18 06:09:42;;;;;;;0.63;0.40;;;17.30;62.60;;;;;;4516605;31;20151;-68
2023/01/18 06:12:07;;;;;;;0.70;0.30;;;17.30;63.50;;;;;;4500400;31;20128;-67
2023/01/18 06:14:33;;;;;;;0.70;0.30;;;17.30;62.60;;;;;;4521770;31;20136;-68
2023/01/18 06:17:00;;;;;;;0.60;0.22;;;17.30;62.60;;;;;;4530089;31;20120;-67
2023/01/18 06:19:26;;;;;;;0.65;0.38;;;17.30;62.50;;;;;;4529403;31;20158;-68
2023/01/18 06:21:53;;;;;;;0.80;0.40;;;17.30;62.60;;;;;;4516243;31;20104;-68
2023/01/18 06:24:20;;;;;;;0.77;0.50;;;17.30;62.60;;;;;;4529557;31;20127;-67
2023/01/18 06:26:45;;;;;;;0.85;0.20;;;17.30;62.50;;;;;;4530352;31;20120;-68
2023/01/18 06:29:11;;;;;;;1.23;0.40;;;17.30;62.50;;;;;;4502012;31;20116;-67
2023/01/18 06:31:37;;;;;;;0.75;0.35;;;17.30;62.50;;;;;;4529876;31;20116;-68
2023/01/18 06:34:08;;;;;;;1.02;0.50;;;17.30;62.50;;;;;;4516109;31;20208;-68
2023/01/18 06:36:37;;;;;;;1.58;0.50;;;17.30;62.60;;;;;;4499073;31;20139;-68
2023/01/18 06:39:04;;;;;;;0.73;0.40;;;17.30;62.50;;;;;;4523247;31;20140;-68
2023/01/18 06:41:31;;;;;;;0.47;0.20;;;17.20;62.50;;;;;;4514676;31;20128;-68
2023/01/18 06:43:57;;;;;;;0.45;0.30;;;17.20;62.50;;;;;;4529890;31;20135;-68
2023/01/18 06:46:23;;;;;;;0.68;0.35;;;17.20;62.50;;;;;;4529877;31;20128;-67
2023/01/18 06:48:49;;;;;;;0.70;0.40;;;17.20;62.60;;;;;;4529359;31;20599;-68
2023/01/18 06:51:16;;;;;;;0.70;0.40;;;17.20;62.60;;;;;;4529804;31;20137;-68
2023/01/18 06:53:42;;;;;;;0.50;0.30;;;17.20;62.60;;;;;;4514562;31;20117;-68
2023/01/18 06:56:09;;;;;;;1.02;0.40;;;17.20;62.60;;;;;;4516188;31;20511;-68
2023/01/18 06:58:35;;;;;;;0.73;0.25;;;17.20;62.60;;;;;;4528809;31;20171;-68
2023/01/18 07:01:02;;;;;;;0.35;0.30;;;17.20;62.50;;;;;;4530259;31;20142;-68
2023/01/18 07:03:29;;;;;;;0.50;0.45;;;17.20;62.50;;;;;;4515313;31;20318;-67
2023/01/18 07:05:57;;;;;;;0.57;0.40;;;17.20;62.50;;;;;;4514847;31;20216;-68
2023/01/18 07:08:29;;;;;;;0.77;0.50;;;17.20;62.60;;;;;;4529711;31;20153;-68
2023/01/18 07:10:56;;;;;;;0.70;0.40;;;17.20;62.60;;;;;;4514546;31;20146;-68
2023/01/18 07:13:22;;;;;;;0.43;0.32;;;17.20;62.60;;;;;;4530154;31;20142;-68
2023/01/18 07:16:00;;;;;;;0.40;0.28;;;17.20;62.60;;;;;;4529051;31;20124;-68
2023/01/18 07:18:28;;;;;;;0.38;0.25;;;17.20;62.60;;;;;;4515602;31;20135;-68
2023/01/18 07:20:56;;;;;;;0.55;0.35;;;17.20;62.60;;;;;;4518600;31;20092;-68
2023/01/18 07:23:22;;;;;;;0.77;0.40;;;17.20;62.60;;;;;;4528885;31;20127;-68
2023/01/18 07:25:48;;;;;;;0.63;0.32;;;17.20;62.50;;;;;;4515657;31;20142;-68
2023/01/18 07:28:13;;;;;;;0.95;0.35;;;17.20;62.50;;;;;;4513907;31;20147;-68
2023/01/18 07:30:39;;;;;;;0.60;0.40;;;17.20;62.50;;;;;;4529997;31;20290;-68
2023/01/18 07:33:06;;;;;;;0.40;0.28;;;17.20;62.50;;;;;;4514010;31;20289;-68
2023/01/18 07:35:32;;;;;;;1.13;0.50;;;17.20;62.60;;;;;;4529639;31;20186;-68
2023/01/18 07:37:58;;;;;;;0.88;0.40;;;17.10;62.60;;;;;;4515393;31;20195;-68
2023/01/18 07:40:24;;;;;;;1.00;0.50;;;17.20;62.60;;;;;;4514107;31;20126;-68
2023/01/18 07:42:55;;;;;;;0.60;0.40;;;17.10;62.60;;;;;;4529954;31;20171;-68
2023/01/18 07:45:21;;;;;;;0.80;0.40;;;17.20;62.50;;;;;;4528288;31;20278;-68
2023/01/18 07:47:48;;;;;;;1.00;0.30;;;17.10;62.50;;;;;;4502445;31;20132;-68
2023/01/18 07:50:15;;;;;;;0.40;0.40;;;17.10;62.50;;;;;;4528205;31;20151;-67
2023/01/18 07:52:41;;;;;;;1.25;0.30;;;17.10;62.50;;;;;;4518191;31;20289;-68
2023/01/18 07:55:07;;;;;;;0.82;0.50;;;17.10;62.50;;;;;;4518187;31;20061;-67
2023/01/18 07:57:33;;;;;;;0.40;0.40;;;17.10;62.60;;;;;;4531901;31;20286;-68
2023/01/18 07:59:59;;;;;;;0.77;0.40;;;17.10;62.50;;;;;;4505536;31;20143;-68
2023/01/18 08:02:25;;;;;;;0.73;0.43;;;17.10;62.50;;;;;;4531567;31;20112;-68
2023/01/18 08:04:51;;;;;;;0.30;0.30;;;17.10;62.60;;;;;;4533082;31;20266;-68
2023/01/18 08:07:17;;;;;;;0.22;0.15;;;17.00;62.50;;;;;;4520484;31;20137;-68
2023/01/18 08:09:43;;;;;;;0.30;0.30;;;17.10;62.60;;;;;;4532683;31;20127;-68
2023/01/18 08:12:12;;;;;;;0.60;0.38;;;17.10;62.60;;;;;;4518114;31;20250;-68
2023/01/18 08:14:39;;;;;;;0.80;0.47;;;17.10;62.60;;;;;;4531556;31;20484;-68
2023/01/18 08:17:05;;;;;;;0.65;0.40;;;17.10;62.60;;;;;;4518289;31;20147;-68
2023/01/18 08:19:31;;;;;;;0.63;0.30;;;17.00;62.50;;;;;;4516121;31;20143;-68
2023/01/18 08:21:57;;;;;;;0.80;0.40;;;17.10;62.60;;;;;;4520981;31;20150;-67
2023/01/18 08:24:23;;;;;;;0.73;0.40;;;17.10;62.60;;;;;;4515292;31;20096;-67
2023/01/18 08:26:49;;;;;;;0.70;0.40;;;17.00;62.70;;;;;;4530475;31;20120;-67
2023/01/18 08:29:14;;;;;;;0.57;0.38;;;17.00;62.90;;;;;;4527175;31;20190;-67
2023/01/18 08:31:40;;;;;;;3.80;0.60;;;17.00;63.20;;;;;;4512216;31;20803;-67
2023/01/18 08:34:06;;;;;;;1.35;0.40;;;17.00;63.40;;;;;;4527870;31;20504;-67
2023/01/18 08:36:32;;;;;;;1.83;0.70;;;17.00;63.60;;;;;;4510804;31;20206;-67
2023/01/18 08:38:58;;;;;;;2.65;0.70;;;17.10;64.10;;;;;;4527766;31;20151;-67
2023/01/18 08:41:29;;;;;;;2.75;0.75;;;17.10;64.30;;;;;;4525735;31;20129;-67
2023/01/18 08:43:56;;;;;;;1.02;0.50;;;17.30;63.90;;;;;;4515077;31;20136;-67
2023/01/18 08:46:22;;;;;;;1.17;0.50;;;17.40;63.30;;;;;;4513545;31;20147;-66
2023/01/18 08:48:50;;;;;;;1.00;0.40;;;17.50;63.00;;;;;;4513832;31;20252;-67
2023/01/18 08:51:20;;;;;;;5.18;0.50;;;17.70;62.70;;;;;;4512984;31;20744;-67
2023/01/18 08:53:47;;;;;;;1.80;0.63;;;17.80;62.30;;;;;;4509633;31;20151;-67
2023/01/18 08:56:13;;;;;;;2.10;0.70;;;18.00;62.00;;;;;;4499318;31;20341;-68
2023/01/18 08:58:38;;;;;;;2.20;0.70;;;18.10;61.70;;;;;;4508461;31;20633;-68
2023/01/18 09:01:06;;;;;;;1.95;0.70;;;18.20;61.50;;;;;;4512330;31;20198;-68
2023/01/18 09:03:32;;;;;;;4.28;0.80;;;18.30;61.30;;;;;;4509527;31;20144;-68
2023/01/18 09:06:02;;;;;;;2.63;0.70;;;18.40;61.10;;;;;;4511642;31;20128;-68
2023/01/18 09:08:28;;;;;;;1.75;0.90;;;18.40;61.00;;;;;;4512541;31;20199;-67
2023/01/18 09:10:54;;;;;;;1.90;0.85;;;18.50;61.10;;;;;;4507689;31;20179;-67
2023/01/18 09:13:20;;;;;;;2.80;0.80;;;18.50;60.90;;;;;;4504519;31;20136;-68
2023/01/18 09:15:46;;;;;;;4.13;0.73;;;18.50;60.90;;;;;;4513245;31;20134;-69
2023/01/18 09:18:12;;;;;;;3.65;1.00;;;18.60;60.80;;;;;;4507353;31;20121;-69
2023/01/18 09:20:39;;;;;;;3.97;0.80;;;18.70;60.80;;;;;;4513292;31;20128;-67
2023/01/18 09:23:08;;;;;;;1.60;0.68;;;18.80;60.70;;;;;;4510385;31;20218;-67
2023/01/18 09:25:36;;;;;;;2.15;0.77;;;18.90;60.60;;;;;;4510908;31;20262;-70
2023/01/18 09:28:03;;;;;;;5.95;0.93;;;19.00;60.40;;;;;;4517405;31;20148;-70
2023/01/18 09:30:29;;;;;;;1.95;0.77;;;19.10;60.30;;;;;;4531825;31;20453;-71
2023/01/18 09:32:56;;;;;;;1.65;0.68;;;19.20;60.10;;;;;;4529798;31;20120;-70
2023/01/18 09:35:22;;;;;;;2.35;0.93;;;19.30;60.00;;;;;;4516862;31;20146;-78
2023/01/18 09:37:48;;;;;;;4.82;0.90;;;19.30;59.90;;;;;;4514891;31;20116;-67
2023/01/18 09:40:19;;;;;;;2.85;0.93;;;19.40;59.90;;;;;;4530119;31;20142;-67
2023/01/18 09:42:48;;;;;;;2.65;1.20;;;19.40;59.80;;;;;;4517299;31;20124;-67
2023/01/18 09:45:30;;;;;;;2.17;0.90;;;19.30;59.80;;;;;;4530008;31;20146;-67
2023/01/18 09:48:04;;;;;;;5.05;1.17;;;19.30;59.90;;;;;;4531266;31;20139;-67
2023/01/18 09:50:41;;;;;;;6.18;1.00;;;19.20;60.00;;;;;;4529776;31;20141;-67
2023/01/18 09:53:34;;;;;;;5.47;1.15;;;19.20;60.30;;;;;;4513568;31;20135;-67
2023/01/18 09:56:26;;;;;;;3.20;0.90;;;19.10;60.50;;;;;;4514789;31;20155;-68
2023/01/18 09:59:13;;;;;;;4.35;1.65;;;19.10;60.80;;;;;;4528258;31;20201;-68
2023/01/18 10:01:39;;;;;;;3.65;1.20;;;19.10;60.80;;;;;;4500500;31;20672;-68
2023/01/18 10:04:27;;;;;;;4.65;0.77;;;19.20;60.70;;;;;;4514441;31;20699;-68
2023/01/18 10:07:00;;;;;;;4.20;0.90;;;19.20;60.50;;;;;;4526383;31;20215;-68
2023/01/18 10:09:29;;;;;;;5.20;1.15;;;19.30;60.40;;;;;;4529461;31;20132;-67
2023/01/18 10:12:02;;;;;;;1.88;0.90;;;19.40;60.20;;;;;;4514952;31;20175;-67
2023/01/18 10:14:49;;;;;;;4.78;1.88;;;19.50;60.10;;;;;;4521885;31;20597;-68
2023/01/18 10:17:22;;;;;;;5.53;1.30;;;19.50;60.50;;;;;;4516870;31;20132;-67
2023/01/18 10:19:48;;;;;;;5.13;1.67;;;19.50;60.40;;;;;;4514640;31;20140;-67
2023/01/18 10:22:35;;;;;;;6.07;1.70;;;19.50;60.50;;;;;;4512095;31;20140;-68
2023/01/18 10:25:13;;;;;;;9.18;1.48;;;19.50;60.40;;;;;;4515621;31;20111;-67
2023/01/18 10:28:03;;;;;;;4.68;1.15;;;19.50;60.20;;;;;;4515354;31;20133;-67
2023/01/18 10:30:38;;;;;;;3.63;1.38;;;19.50;60.20;;;;;;4475021;31;20470;-68
2023/01/18 10:33:21;;;;;;;4.57;1.50;;;19.50;60.20;;;;;;4523686;31;20139;-67
2023/01/18 10:35:52;;;;;;;5.53;1.80;;;19.50;60.20;;;;;;4519463;31;20140;-70
2023/01/18 10:38:22;;;;;;;5.55;1.50;;;19.60;60.20;;;;;;4527587;31;20143;-68
2023/01/18 10:40:59;;;;;;;5.53;1.65;;;19.60;60.00;;;;;;4523463;31;20132;-68
2023/01/18 10:43:28;;;;;;;4.35;1.00;;;19.60;60.10;;;;;;4528227;31;20131;-68
2023/01/18 10:45:54;;;;;;;3.05;1.50;;;19.60;60.00;;;;;;4514118;31;20264;-69
2023/01/18 10:48:33;;;;;;;3.70;1.23;;;19.60;60.00;;;;;;4528044;31;20200;-69
2023/01/18 10:51:04;;;;;;;5.20;1.75;;;19.60;60.10;;;;;;4527879;31;20191;-68
2023/01/18 10:53:34;;;;;;;6.60;1.60;;;19.60;60.10;;;;;;4527607;31;20256;-69
2023/01/18 10:56:09;;;;;;;4.28;1.60;;;19.60;60.00;;;;;;4525736;31;20272;-68
2023/01/18 10:58:44;;;;;;;7.78;1.35;;;19.60;60.10;;;;;;4511761;31;20263;-68
2023/01/18 11:01:23;;;;;;;9.23;1.67;;;19.60;60.10;;;;;;4506270;31;20197;-69
2023/01/18 11:03:53;;;;;;;3.20;1.20;;;19.60;60.20;;;;;;4515518;31;20069;-69
2023/01/18 11:06:20;;;;;;;4.38;1.23;;;19.60;60.30;;;;;;4513961;31;20142;-69
2023/01/18 11:08:49;;;;;;;4.00;1.27;;;19.60;60.30;;;;;;4524733;31;20116;-69
2023/01/18 11:14:41;;;;;;;2.63;1.17;;;19.60;60.30;;;;;;4519112;31;20262;-69
2023/01/18 11:17:11;;;;;;;4.93;1.63;;;19.60;60.40;;;;;;4521801;31;20146;-68
2023/01/18 11:19:40;;;;;;;4.10;1.27;;;19.60;60.50;;;;;;4525048;31;20261;-69
2023/01/18 11:22:15;;;;;;;4.13;1.52;;;19.60;60.50;;;;;;4511172;31;20147;-73
2023/01/18 11:24:42;;;;;;;4.18;1.00;;;19.60;60.70;;;;;;4525246;31;20655;-73
2023/01/18 11:27:20;;;;;;;3.67;1.42;;;19.60;60.70;;;;;;4527002;31;20254;-71
2023/01/18 11:29:46;;;;;;;3.05;1.30;;;19.60;60.70;;;;;;4514857;31;20151;-70
2023/01/18 11:32:23;;;;;;;3.97;1.25;;;19.60;60.70;;;;;;4526956;31;20131;-69
2023/01/18 11:34:54;;;;;;;3.15;1.23;;;19.60;60.70;;;;;;4513558;31;20132;-70
2023/01/18 11:37:33;;;;;;;3.85;1.15;;;19.60;60.70;;;;;;4527784;31;20581;-69
2023/01/18 11:40:19;;;;;;;4.45;1.50;;;19.60;60.70;;;;;;4513561;31;20305;-70
2023/01/18 11:42:47;;;;;;;3.75;1.30;;;19.60;60.80;;;;;;4515366;31;20282;-68
2023/01/18 11:45:29;;;;;;;4.32;1.20;;;19.60;60.80;;;;;;4527260;31;20154;-68
2023/01/18 11:47:55;;;;;;;3.22;1.40;;;19.60;60.80;;;;;;4527102;31;20244;-68
2023/01/18 11:50:24;;;;;;;2.88;0.90;;;19.60;60.70;;;;;;4526737;31;20131;-68
2023/01/18 11:53:03;;;;;;;3.50;1.08;;;19.60;60.60;;;;;;4527817;31;20131;-69
2023/01/18 11:55:35;;;;;;;3.67;0.95;;;19.60;60.40;;;;;;4528523;31;20127;-69
2023/01/18 11:58:05;;;;;;;4.22;1.17;;;19.60;60.40;;;;;;4527007;31;20236;-69
2023/01/18 12:00:45;;;;;;;3.10;1.20;;;19.60;60.40;;;;;;4528129;31;20289;-68
2023/01/18 12:03:43;;;;;;;3.92;1.17;;;19.60;60.30;;;;;;4527914;31;20198;-68
2023/01/18 12:06:47;;;;;;;4.95;1.25;;;19.60;60.00;;;;;;4506711;31;20124;-68
2023/01/18 12:09:43;;;;;;;6.82;1.15;;;19.60;60.00;;;;;;4482534;31;20131;-68
2023/01/18 12:12:53;;;;;;;3.40;1.38;;;19.60;59.90;;;;;;4528402;31;20151;-68
2023/01/18 12:15:34;;;;;;;2.75;1.10;;;19.60;59.80;;;;;;4513531;31;20187;-69
2023/01/18 12:18:22;;;;;;;3.25;0.95;;;19.70;59.80;;;;;;4523767;31;20144;-69
2023/01/18 12:20:54;;;;;;;2.22;0.93;;;19.70;59.70;;;;;;4519236;31;20496;-68
2023/01/18 12:23:32;;;;;;;2.55;1.02;;;19.80;59.70;;;;;;4521711;31;20139;-68
2023/01/18 12:26:15;;;;;;;2.58;0.90;;;19.80;59.60;;;;;;4519290;31;20202;-68
2023/01/18 12:28:49;;;;;;;6.47;1.03;;;19.80;59.60;;;;;;4520408;31;20147;-68
2023/01/18 12:31:33;;;;;;;;;;;19.80;59.50;;;;;;4529664;31;20180;-68
2023/01/18 12:34:06;;;;;;;4.38;1.50;;;19.80;59.60;;;;;;4529405;31;20034;-68
2023/01/18 12:36:56;;;;;;;2.90;1.13;;;19.90;59.60;;;;;;4507214;31;23096;-69
2023/01/18 12:39:28;;;;;;;2.47;0.82;;;19.80;59.50;;;;;;4530995;31;20124;-70
2023/01/18 12:42:00;;;;;;;2.15;0.90;;;19.90;59.70;;;;;;4529642;31;20463;-69
2023/01/18 12:44:56;;;;;;;3.85;0.75;;;19.90;59.70;;;;;;4529679;31;20129;-70
2023/01/18 12:47:51;;;;;;;2.50;0.82;;;19.90;59.70;;;;;;4531235;31;20236;-69
2023/01/18 12:50:30;;;;;;;2.38;1.10;;;19.90;59.70;;;;;;4528357;31;20542;-69
2023/01/18 12:53:01;;;;;;;4.07;1.05;;;19.90;59.70;;;;;;4530041;31;20503;-69
2023/01/18 12:55:30;;;;;;;2.08;0.90;;;19.90;59.70;;;;;;4527952;31;20143;-68
2023/01/18 12:57:58;;;;;;;2.83;0.73;;;19.90;59.70;;;;;;4515641;31;20238;-69
2023/01/18 13:00:39;;;;;;;1.98;0.95;;;19.90;59.70;;;;;;4528924;31;20154;-69
2023/01/18 13:03:12;;;;;;;2.38;0.80;;;19.90;59.70;;;;;;4529450;31;20175;-69
2023/01/18 13:05:58;;;;;;;2.78;0.90;;;20.00;59.80;;;;;;4527784;31;20213;-70
2023/01/18 13:08:44;;;;;;;3.10;1.20;;;20.00;59.80;;;;;;4529182;31;20147;-69
2023/01/18 13:11:22;;;;;;;2.28;1.08;;;19.90;59.80;;;;;;4528890;31;20525;-69
2023/01/18 13:13:54;;;;;;;3.17;0.80;;;20.00;59.90;;;;;;4529822;31;20128;-69
2023/01/18 13:16:30;;;;;;;1.98;0.80;;;20.00;60.70;;;;;;4529932;31;20134;-72
2023/01/18 13:19:02;;;;;;;2.83;0.80;;;19.90;59.80;;;;;;4525653;31;20209;-69
2023/01/18 13:22:16;;;;;;;3.15;0.73;;;20.00;59.90;;;;;;4516254;31;20167;-70
2023/01/18 13:24:51;;;;;;;5.35;1.00;;;19.90;59.90;;;;;;4520609;31;20116;-68
2023/01/18 13:27:17;;;;;;;2.28;0.88;;;20.00;60.00;;;;;;4528087;31;20132;-69
2023/01/18 13:29:45;;;;;;;2.85;1.10;;;20.00;60.00;;;;;;4516918;31;20588;-69
2023/01/18 13:32:21;;;;;;;1.73;0.60;;;20.00;60.10;;;;;;4530242;31;20124;-69
2023/01/18 13:35:01;;;;;;;2.75;0.98;;;20.00;60.10;;;;;;4531779;31;20231;-69
2023/01/18 13:37:40;;;;;;;2.08;0.90;;;20.00;60.10;;;;;;4531108;31;20131;-69
2023/01/18 13:40:18;;;;;;;2.28;0.70;;;20.00;60.10;;;;;;4519532;31;20143;-71
2023/01/18 13:42:44;;;;;;;1.73;0.70;;;20.00;60.00;;;;;;4531691;31;20132;-69
2023/01/18 13:45:13;;;;;;;4.30;0.90;;;20.00;60.10;;;;;;4515573;31;20120;-69
2023/01/18 13:47:45;;;;;;;2.58;1.00;;;20.00;60.10;;;;;;4531545;31;20135;-69